sensor_id;sensor_type;location;lat;lon;timestamp;P1;durP1;ratioP1;P2;durP2;ratioP2
6679;SDS011;3376;42.664;23.346;2023-01-09T00:01:29;46.17;;;34.80;;
6679;SDS011;3376;42.664;23.346;2023-01-09T00:03:57;51.40;;;35.70;;
6679;SDS011;3376;42.664;23.346;2023-01-09T00:06:24;52.58;;;35.92;;
6679;SDS011;3376;42.664;23.346;2023-01-09T00:08:52;53.17;;;35.75;;
6679;SDS011;3376;42.664;23.346;2023-01-09T00:11:19;58.13;;;35.33;;
6679;SDS011;3376;42.664;23.346;2023-01-09T00:13:45;51.53;;;35.67;;
6679;SDS011;3376;42.664;23.346;2023-01-09T00:16:12;54.58;;;34.20;;
6679;SDS011;3376;42.664;23.346;2023-01-09T00:18:39;46.63;;;34.35;;
6679;SDS011;3376;42.664;23.346;2023-01-09T00:21:07;50.28;;;33.72;;
6679;SDS011;3376;42.664;23.346;2023-01-09T00:23:35;50.30;;;33.78;;
6679;SDS011;3376;42.664;23.346;2023-01-09T00:26:04;44.25;;;32.80;;
6679;SDS011;3376;42.664;23.346;2023-01-09T00:28:32;53.45;;;35.50;;
6679;SDS011;3376;42.664;23.346;2023-01-09T00:31:00;51.10;;;34.40;;
6679;SDS011;3376;42.664;23.346;2023-01-09T00:33:29;50.22;;;34.10;;
6679;SDS011;3376;42.664;23.346;2023-01-09T00:35:57;49.30;;;34.72;;
6679;SDS011;3376;42.664;23.346;2023-01-09T00:38:25;51.13;;;34.20;;
6679;SDS011;3376;42.664;23.346;2023-01-09T00:40:51;46.70;;;33.10;;
6679;SDS011;3376;42.664;23.346;2023-01-09T00:43:22;44.22;;;33.60;;
6679;SDS011;3376;42.664;23.346;2023-01-09T00:45:51;41.42;;;31.73;;
6679;SDS011;3376;42.664;23.346;2023-01-09T00:48:18;43.63;;;32.20;;
6679;SDS011;3376;42.664;23.346;2023-01-09T00:50:51;44.45;;;32.47;;
6679;SDS011;3376;42.664;23.346;2023-01-09T00:53:19;41.92;;;32.20;;
6679;SDS011;3376;42.664;23.346;2023-01-09T00:55:48;48.72;;;33.58;;
6679;SDS011;3376;42.664;23.346;2023-01-09T00:58:15;41.83;;;31.05;;
6679;SDS011;3376;42.664;23.346;2023-01-09T01:00:44;43.85;;;30.73;;
6679;SDS011;3376;42.664;23.346;2023-01-09T01:03:10;44.95;;;31.70;;
6679;SDS011;3376;42.664;23.346;2023-01-09T01:05:37;43.78;;;33.38;;
6679;SDS011;3376;42.664;23.346;2023-01-09T01:08:20;42.22;;;32.42;;
6679;SDS011;3376;42.664;23.346;2023-01-09T01:10:47;42.17;;;32.30;;
6679;SDS011;3376;42.664;23.346;2023-01-09T01:13:14;38.10;;;29.30;;
6679;SDS011;3376;42.664;23.346;2023-01-09T01:15:42;39.00;;;29.98;;
6679;SDS011;3376;42.664;23.346;2023-01-09T01:18:11;37.90;;;29.92;;
6679;SDS011;3376;42.664;23.346;2023-01-09T01:20:39;37.00;;;29.40;;
6679;SDS011;3376;42.664;23.346;2023-01-09T01:23:07;37.92;;;29.90;;
6679;SDS011;3376;42.664;23.346;2023-01-09T01:25:34;43.13;;;28.70;;
6679;SDS011;3376;42.664;23.346;2023-01-09T01:28:02;41.47;;;30.75;;
6679;SDS011;3376;42.664;23.346;2023-01-09T01:30:29;42.00;;;31.25;;
6679;SDS011;3376;42.664;23.346;2023-01-09T01:32:57;44.42;;;30.30;;
6679;SDS011;3376;42.664;23.346;2023-01-09T01:35:24;39.90;;;29.27;;
6679;SDS011;3376;42.664;23.346;2023-01-09T01:37:51;36.85;;;29.30;;
6679;SDS011;3376;42.664;23.346;2023-01-09T01:40:18;43.88;;;31.38;;
6679;SDS011;3376;42.664;23.346;2023-01-09T01:42:46;35.83;;;29.77;;
6679;SDS011;3376;42.664;23.346;2023-01-09T01:45:14;36.20;;;29.38;;
6679;SDS011;3376;42.664;23.346;2023-01-09T01:47:45;43.05;;;30.60;;
6679;SDS011;3376;42.664;23.346;2023-01-09T01:50:28;37.50;;;28.08;;
6679;SDS011;3376;42.664;23.346;2023-01-09T01:52:59;41.47;;;30.52;;
6679;SDS011;3376;42.664;23.346;2023-01-09T01:55:32;41.65;;;29.40;;
6679;SDS011;3376;42.664;23.346;2023-01-09T01:58:00;37.65;;;29.08;;
6679;SDS011;3376;42.664;23.346;2023-01-09T02:00:31;38.25;;;29.60;;
6679;SDS011;3376;42.664;23.346;2023-01-09T02:03:02;38.65;;;30.90;;
6679;SDS011;3376;42.664;23.346;2023-01-09T02:05:30;41.25;;;30.15;;
6679;SDS011;3376;42.664;23.346;2023-01-09T02:07:58;39.03;;;29.65;;
6679;SDS011;3376;42.664;23.346;2023-01-09T02:10:25;35.90;;;28.63;;
6679;SDS011;3376;42.664;23.346;2023-01-09T02:12:53;42.15;;;32.67;;
6679;SDS011;3376;42.664;23.346;2023-01-09T02:15:19;41.10;;;31.35;;
6679;SDS011;3376;42.664;23.346;2023-01-09T02:20:51;39.72;;;29.85;;
6679;SDS011;3376;42.664;23.346;2023-01-09T02:32:57;35.45;;;28.98;;
6679;SDS011;3376;42.664;23.346;2023-01-09T02:38:22;36.25;;;29.30;;
6679;SDS011;3376;42.664;23.346;2023-01-09T02:40:56;41.75;;;31.33;;
6679;SDS011;3376;42.664;23.346;2023-01-09T02:43:27;43.70;;;32.20;;
6679;SDS011;3376;42.664;23.346;2023-01-09T02:45:56;38.25;;;30.65;;
6679;SDS011;3376;42.664;23.346;2023-01-09T02:48:23;41.28;;;32.30;;
6679;SDS011;3376;42.664;23.346;2023-01-09T02:50:52;42.30;;;31.70;;
6679;SDS011;3376;42.664;23.346;2023-01-09T02:53:44;45.17;;;32.80;;
6679;SDS011;3376;42.664;23.346;2023-01-09T02:56:37;42.17;;;31.75;;
6679;SDS011;3376;42.664;23.346;2023-01-09T02:59:15;41.95;;;31.80;;
6679;SDS011;3376;42.664;23.346;2023-01-09T03:01:51;42.97;;;33.25;;
6679;SDS011;3376;42.664;23.346;2023-01-09T03:04:29;43.00;;;31.30;;
6679;SDS011;3376;42.664;23.346;2023-01-09T03:07:06;39.00;;;30.80;;
6679;SDS011;3376;42.664;23.346;2023-01-09T03:09:39;35.70;;;29.98;;
6679;SDS011;3376;42.664;23.346;2023-01-09T03:12:09;36.97;;;30.15;;
6679;SDS011;3376;42.664;23.346;2023-01-09T03:14:43;34.85;;;28.45;;
6679;SDS011;3376;42.664;23.346;2023-01-09T03:17:14;36.72;;;28.30;;
6679;SDS011;3376;42.664;23.346;2023-01-09T03:19:47;38.05;;;29.25;;
6679;SDS011;3376;42.664;23.346;2023-01-09T03:22:17;41.03;;;32.42;;
6679;SDS011;3376;42.664;23.346;2023-01-09T03:24:44;36.22;;;28.80;;
6679;SDS011;3376;42.664;23.346;2023-01-09T03:27:11;36.35;;;30.15;;
6679;SDS011;3376;42.664;23.346;2023-01-09T03:29:38;40.60;;;30.58;;
6679;SDS011;3376;42.664;23.346;2023-01-09T03:32:05;32.45;;;27.40;;
6679;SDS011;3376;42.664;23.346;2023-01-09T03:34:33;35.55;;;28.73;;
6679;SDS011;3376;42.664;23.346;2023-01-09T03:37:00;35.60;;;26.80;;
6679;SDS011;3376;42.664;23.346;2023-01-09T03:39:28;33.28;;;27.50;;
6679;SDS011;3376;42.664;23.346;2023-01-09T03:41:55;37.58;;;27.92;;
6679;SDS011;3376;42.664;23.346;2023-01-09T03:44:22;38.03;;;29.45;;
6679;SDS011;3376;42.664;23.346;2023-01-09T03:46:49;33.90;;;28.13;;
6679;SDS011;3376;42.664;23.346;2023-01-09T03:49:16;38.85;;;31.17;;
6679;SDS011;3376;42.664;23.346;2023-01-09T03:51:44;34.05;;;26.70;;
6679;SDS011;3376;42.664;23.346;2023-01-09T03:54:11;38.63;;;28.48;;
6679;SDS011;3376;42.664;23.346;2023-01-09T03:56:38;35.35;;;27.35;;
6679;SDS011;3376;42.664;23.346;2023-01-09T03:59:04;37.15;;;28.52;;
6679;SDS011;3376;42.664;23.346;2023-01-09T04:01:31;35.28;;;27.63;;
6679;SDS011;3376;42.664;23.346;2023-01-09T04:03:59;31.45;;;25.73;;
6679;SDS011;3376;42.664;23.346;2023-01-09T04:06:26;32.25;;;27.90;;
6679;SDS011;3376;42.664;23.346;2023-01-09T04:08:54;32.47;;;26.75;;
6679;SDS011;3376;42.664;23.346;2023-01-09T04:11:20;31.45;;;26.65;;
6679;SDS011;3376;42.664;23.346;2023-01-09T04:13:48;34.10;;;26.83;;
6679;SDS011;3376;42.664;23.346;2023-01-09T04:16:15;32.13;;;26.45;;
6679;SDS011;3376;42.664;23.346;2023-01-09T04:18:42;34.00;;;26.05;;
6679;SDS011;3376;42.664;23.346;2023-01-09T04:21:09;33.50;;;26.27;;
6679;SDS011;3376;42.664;23.346;2023-01-09T04:23:36;30.30;;;25.50;;
6679;SDS011;3376;42.664;23.346;2023-01-09T04:26:04;31.45;;;26.73;;
6679;SDS011;3376;42.664;23.346;2023-01-09T04:28:32;30.23;;;26.83;;
6679;SDS011;3376;42.664;23.346;2023-01-09T04:30:58;33.97;;;27.50;;
6679;SDS011;3376;42.664;23.346;2023-01-09T04:33:26;32.95;;;27.85;;
6679;SDS011;3376;42.664;23.346;2023-01-09T04:35:53;28.20;;;25.08;;
6679;SDS011;3376;42.664;23.346;2023-01-09T04:38:20;38.03;;;29.67;;
6679;SDS011;3376;42.664;23.346;2023-01-09T04:40:46;39.47;;;28.73;;
6679;SDS011;3376;42.664;23.346;2023-01-09T04:43:15;39.90;;;31.30;;
6679;SDS011;3376;42.664;23.346;2023-01-09T04:45:41;40.15;;;29.80;;
6679;SDS011;3376;42.664;23.346;2023-01-09T04:48:08;40.08;;;31.17;;
6679;SDS011;3376;42.664;23.346;2023-01-09T04:50:35;35.40;;;28.27;;
6679;SDS011;3376;42.664;23.346;2023-01-09T04:53:02;30.48;;;25.60;;
6679;SDS011;3376;42.664;23.346;2023-01-09T04:55:29;37.17;;;28.58;;
6679;SDS011;3376;42.664;23.346;2023-01-09T04:57:56;40.08;;;29.52;;
6679;SDS011;3376;42.664;23.346;2023-01-09T05:00:24;31.73;;;26.27;;
6679;SDS011;3376;42.664;23.346;2023-01-09T05:02:51;42.22;;;30.92;;
6679;SDS011;3376;42.664;23.346;2023-01-09T05:05:18;36.88;;;28.63;;
6679;SDS011;3376;42.664;23.346;2023-01-09T05:07:45;38.42;;;29.77;;
6679;SDS011;3376;42.664;23.346;2023-01-09T05:10:11;38.08;;;28.67;;
6679;SDS011;3376;42.664;23.346;2023-01-09T05:12:38;34.95;;;28.13;;
6679;SDS011;3376;42.664;23.346;2023-01-09T05:15:06;33.63;;;27.58;;
6679;SDS011;3376;42.664;23.346;2023-01-09T05:17:34;35.42;;;27.75;;
6679;SDS011;3376;42.664;23.346;2023-01-09T05:20:01;35.47;;;28.45;;
6679;SDS011;3376;42.664;23.346;2023-01-09T05:22:28;39.88;;;29.45;;
6679;SDS011;3376;42.664;23.346;2023-01-09T05:24:55;47.55;;;32.22;;
6679;SDS011;3376;42.664;23.346;2023-01-09T05:27:22;46.70;;;32.65;;
6679;SDS011;3376;42.664;23.346;2023-01-09T05:29:48;47.90;;;34.60;;
6679;SDS011;3376;42.664;23.346;2023-01-09T05:32:15;44.30;;;33.55;;
6679;SDS011;3376;42.664;23.346;2023-01-09T05:34:43;57.03;;;37.45;;
6679;SDS011;3376;42.664;23.346;2023-01-09T05:37:10;52.42;;;37.63;;
6679;SDS011;3376;42.664;23.346;2023-01-09T05:39:37;50.80;;;35.70;;
6679;SDS011;3376;42.664;23.346;2023-01-09T05:42:03;54.28;;;35.38;;
6679;SDS011;3376;42.664;23.346;2023-01-09T05:44:30;49.47;;;36.45;;
6679;SDS011;3376;42.664;23.346;2023-01-09T05:46:57;45.42;;;32.85;;
6679;SDS011;3376;42.664;23.346;2023-01-09T05:49:24;49.35;;;35.58;;
6679;SDS011;3376;42.664;23.346;2023-01-09T05:51:52;44.63;;;35.13;;
6679;SDS011;3376;42.664;23.346;2023-01-09T05:54:19;46.08;;;33.72;;
6679;SDS011;3376;42.664;23.346;2023-01-09T05:56:45;45.22;;;33.50;;
6679;SDS011;3376;42.664;23.346;2023-01-09T05:59:12;44.05;;;31.55;;
6679;SDS011;3376;42.664;23.346;2023-01-09T06:01:39;50.80;;;31.15;;
6679;SDS011;3376;42.664;23.346;2023-01-09T06:04:06;47.78;;;31.58;;
6679;SDS011;3376;42.664;23.346;2023-01-09T06:06:32;46.70;;;32.22;;
6679;SDS011;3376;42.664;23.346;2023-01-09T06:09:00;40.55;;;30.05;;
6679;SDS011;3376;42.664;23.346;2023-01-09T06:11:27;39.88;;;30.10;;
6679;SDS011;3376;42.664;23.346;2023-01-09T06:13:54;41.85;;;30.15;;
6679;SDS011;3376;42.664;23.346;2023-01-09T06:16:21;40.35;;;29.58;;
6679;SDS011;3376;42.664;23.346;2023-01-09T06:18:48;48.25;;;32.60;;
6679;SDS011;3376;42.664;23.346;2023-01-09T06:21:15;37.72;;;28.90;;
6679;SDS011;3376;42.664;23.346;2023-01-09T06:23:41;39.55;;;29.10;;
6679;SDS011;3376;42.664;23.346;2023-01-09T06:26:10;39.63;;;29.63;;
6679;SDS011;3376;42.664;23.346;2023-01-09T06:28:36;44.55;;;32.33;;
6679;SDS011;3376;42.664;23.346;2023-01-09T06:31:03;41.05;;;29.88;;
6679;SDS011;3376;42.664;23.346;2023-01-09T06:33:30;86.22;;;50.03;;
6679;SDS011;3376;42.664;23.346;2023-01-09T06:35:57;69.55;;;44.00;;
6679;SDS011;3376;42.664;23.346;2023-01-09T06:38:24;74.25;;;42.20;;
6679;SDS011;3376;42.664;23.346;2023-01-09T06:40:50;59.33;;;36.90;;
6679;SDS011;3376;42.664;23.346;2023-01-09T06:43:18;46.30;;;31.23;;
6679;SDS011;3376;42.664;23.346;2023-01-09T06:45:45;44.67;;;28.37;;
6679;SDS011;3376;42.664;23.346;2023-01-09T06:48:12;37.97;;;25.40;;
6679;SDS011;3376;42.664;23.346;2023-01-09T06:50:39;40.83;;;25.30;;
6679;SDS011;3376;42.664;23.346;2023-01-09T06:53:06;32.57;;;26.67;;
6679;SDS011;3376;42.664;23.346;2023-01-09T06:55:32;37.63;;;24.63;;
6679;SDS011;3376;42.664;23.346;2023-01-09T06:57:59;31.33;;;23.87;;
6679;SDS011;3376;42.664;23.346;2023-01-09T07:00:27;35.87;;;25.03;;
6679;SDS011;3376;42.664;23.346;2023-01-09T07:02:55;49.17;;;30.27;;
6679;SDS011;3376;42.664;23.346;2023-01-09T07:05:23;43.47;;;25.87;;
6679;SDS011;3376;42.664;23.346;2023-01-09T07:07:50;38.00;;;22.97;;
6679;SDS011;3376;42.664;23.346;2023-01-09T07:10:17;34.23;;;23.37;;
6679;SDS011;3376;42.664;23.346;2023-01-09T07:12:44;26.53;;;21.40;;
6679;SDS011;3376;42.664;23.346;2023-01-09T07:15:10;31.77;;;21.63;;
6679;SDS011;3376;42.664;23.346;2023-01-09T07:17:38;28.77;;;22.17;;
6679;SDS011;3376;42.664;23.346;2023-01-09T07:20:06;26.30;;;22.63;;
6679;SDS011;3376;42.664;23.346;2023-01-09T07:22:34;30.87;;;23.00;;
6679;SDS011;3376;42.664;23.346;2023-01-09T07:25:00;25.40;;;22.53;;
6679;SDS011;3376;42.664;23.346;2023-01-09T07:27:27;26.53;;;23.73;;
6679;SDS011;3376;42.664;23.346;2023-01-09T07:29:54;34.93;;;23.73;;
6679;SDS011;3376;42.664;23.346;2023-01-09T07:32:21;26.87;;;22.70;;
6679;SDS011;3376;42.664;23.346;2023-01-09T07:34:49;29.83;;;22.97;;
6679;SDS011;3376;42.664;23.346;2023-01-09T07:37:15;24.93;;;21.87;;
6679;SDS011;3376;42.664;23.346;2023-01-09T07:39:42;30.20;;;23.53;;
6679;SDS011;3376;42.664;23.346;2023-01-09T07:42:09;29.13;;;23.80;;
6679;SDS011;3376;42.664;23.346;2023-01-09T07:44:36;26.57;;;21.80;;
6679;SDS011;3376;42.664;23.346;2023-01-09T07:47:03;32.13;;;24.10;;
6679;SDS011;3376;42.664;23.346;2023-01-09T07:49:29;29.90;;;24.07;;
6679;SDS011;3376;42.664;23.346;2023-01-09T07:51:58;33.40;;;24.37;;
6679;SDS011;3376;42.664;23.346;2023-01-09T07:54:25;31.80;;;23.87;;
6679;SDS011;3376;42.664;23.346;2023-01-09T07:56:51;24.00;;;21.60;;
6679;SDS011;3376;42.664;23.346;2023-01-09T07:59:18;23.87;;;21.33;;
6679;SDS011;3376;42.664;23.346;2023-01-09T08:01:45;27.33;;;21.80;;
6679;SDS011;3376;42.664;23.346;2023-01-09T08:04:12;28.40;;;23.77;;
6679;SDS011;3376;42.664;23.346;2023-01-09T08:06:39;25.30;;;22.90;;
6679;SDS011;3376;42.664;23.346;2023-01-09T08:09:07;28.27;;;23.93;;
6679;SDS011;3376;42.664;23.346;2023-01-09T08:11:34;27.47;;;24.00;;
6679;SDS011;3376;42.664;23.346;2023-01-09T08:14:01;30.50;;;24.17;;
6679;SDS011;3376;42.664;23.346;2023-01-09T08:16:28;30.70;;;24.43;;
6679;SDS011;3376;42.664;23.346;2023-01-09T08:18:54;25.93;;;22.20;;
6679;SDS011;3376;42.664;23.346;2023-01-09T08:21:21;25.30;;;22.63;;
6679;SDS011;3376;42.664;23.346;2023-01-09T08:23:48;27.73;;;22.73;;
6679;SDS011;3376;42.664;23.346;2023-01-09T08:26:16;24.43;;;21.60;;
6679;SDS011;3376;42.664;23.346;2023-01-09T08:28:43;26.30;;;23.63;;
6679;SDS011;3376;42.664;23.346;2023-01-09T08:31:11;27.00;;;21.90;;
6679;SDS011;3376;42.664;23.346;2023-01-09T08:33:37;22.30;;;20.10;;
6679;SDS011;3376;42.664;23.346;2023-01-09T08:36:04;24.57;;;22.07;;
6679;SDS011;3376;42.664;23.346;2023-01-09T08:38:31;23.03;;;20.70;;
6679;SDS011;3376;42.664;23.346;2023-01-09T08:40:58;23.77;;;21.40;;
6679;SDS011;3376;42.664;23.346;2023-01-09T08:43:47;28.40;;;25.37;;
6679;SDS011;3376;42.664;23.346;2023-01-09T08:46:31;33.37;;;25.53;;
6679;SDS011;3376;42.664;23.346;2023-01-09T08:49:15;33.83;;;26.27;;
6679;SDS011;3376;42.664;23.346;2023-01-09T08:51:42;32.10;;;26.87;;
6679;SDS011;3376;42.664;23.346;2023-01-09T08:54:09;34.33;;;28.73;;
6679;SDS011;3376;42.664;23.346;2023-01-09T08:56:35;34.90;;;31.10;;
6679;SDS011;3376;42.664;23.346;2023-01-09T08:59:04;35.80;;;29.63;;
6679;SDS011;3376;42.664;23.346;2023-01-09T09:01:30;37.70;;;30.83;;
6679;SDS011;3376;42.664;23.346;2023-01-09T09:03:57;32.50;;;25.97;;
6679;SDS011;3376;42.664;23.346;2023-01-09T09:06:24;39.33;;;30.00;;
6679;SDS011;3376;42.664;23.346;2023-01-09T09:08:50;30.03;;;26.63;;
6679;SDS011;3376;42.664;23.346;2023-01-09T09:11:17;31.37;;;28.03;;
6679;SDS011;3376;42.664;23.346;2023-01-09T09:13:44;32.97;;;28.40;;
6679;SDS011;3376;42.664;23.346;2023-01-09T09:16:12;31.67;;;28.10;;
6679;SDS011;3376;42.664;23.346;2023-01-09T09:18:39;29.13;;;26.03;;
6679;SDS011;3376;42.664;23.346;2023-01-09T09:21:06;26.13;;;23.47;;
6679;SDS011;3376;42.664;23.346;2023-01-09T09:23:32;30.70;;;27.70;;
6679;SDS011;3376;42.664;23.346;2023-01-09T09:25:59;36.10;;;28.03;;
6679;SDS011;3376;42.664;23.346;2023-01-09T09:28:26;32.50;;;27.23;;
6679;SDS011;3376;42.664;23.346;2023-01-09T09:30:52;34.73;;;29.43;;
6679;SDS011;3376;42.664;23.346;2023-01-09T09:33:20;38.77;;;30.13;;
6679;SDS011;3376;42.664;23.346;2023-01-09T09:35:47;29.73;;;25.77;;
6679;SDS011;3376;42.664;23.346;2023-01-09T09:38:14;28.47;;;25.47;;
6679;SDS011;3376;42.664;23.346;2023-01-09T09:40:46;29.10;;;26.10;;
6679;SDS011;3376;42.664;23.346;2023-01-09T09:43:37;27.57;;;24.57;;
6679;SDS011;3376;42.664;23.346;2023-01-09T09:46:41;26.00;;;23.13;;
6679;SDS011;3376;42.664;23.346;2023-01-09T09:49:16;23.30;;;20.83;;
6679;SDS011;3376;42.664;23.346;2023-01-09T09:51:49;22.20;;;19.77;;
6679;SDS011;3376;42.664;23.346;2023-01-09T09:54:26;22.80;;;20.50;;
6679;SDS011;3376;42.664;23.346;2023-01-09T09:56:59;23.47;;;21.10;;
6679;SDS011;3376;42.664;23.346;2023-01-09T09:59:29;24.50;;;21.93;;
6679;SDS011;3376;42.664;23.346;2023-01-09T10:01:59;20.13;;;18.37;;
6679;SDS011;3376;42.664;23.346;2023-01-09T10:04:31;20.63;;;18.87;;
6679;SDS011;3376;42.664;23.346;2023-01-09T10:06:59;21.33;;;19.40;;
6679;SDS011;3376;42.664;23.346;2023-01-09T10:09:34;23.83;;;21.23;;
6679;SDS011;3376;42.664;23.346;2023-01-09T10:12:20;23.73;;;21.33;;
6679;SDS011;3376;42.664;23.346;2023-01-09T10:14:52;21.40;;;19.10;;
6679;SDS011;3376;42.664;23.346;2023-01-09T10:23:23;24.20;;;21.70;;
6679;SDS011;3376;42.664;23.346;2023-01-09T10:25:59;24.23;;;20.37;;
6679;SDS011;3376;42.664;23.346;2023-01-09T10:28:36;20.60;;;18.00;;
6679;SDS011;3376;42.664;23.346;2023-01-09T10:31:26;20.53;;;18.63;;
6679;SDS011;3376;42.664;23.346;2023-01-09T10:34:03;20.47;;;18.47;;
6679;SDS011;3376;42.664;23.346;2023-01-09T10:39:34;18.20;;;16.70;;
6679;SDS011;3376;42.664;23.346;2023-01-09T10:42:08;18.33;;;16.97;;
6679;SDS011;3376;42.664;23.346;2023-01-09T10:44:41;17.60;;;15.93;;
6679;SDS011;3376;42.664;23.346;2023-01-09T10:47:15;16.07;;;14.83;;
6679;SDS011;3376;42.664;23.346;2023-01-09T10:49:44;16.40;;;15.07;;
6679;SDS011;3376;42.664;23.346;2023-01-09T10:52:14;16.87;;;15.07;;
6679;SDS011;3376;42.664;23.346;2023-01-09T10:54:47;15.80;;;14.67;;
6679;SDS011;3376;42.664;23.346;2023-01-09T10:57:22;16.27;;;14.63;;
6679;SDS011;3376;42.664;23.346;2023-01-09T10:59:59;15.97;;;14.57;;
6679;SDS011;3376;42.664;23.346;2023-01-09T11:02:26;16.07;;;14.67;;
6679;SDS011;3376;42.664;23.346;2023-01-09T11:04:56;16.40;;;15.17;;
6679;SDS011;3376;42.664;23.346;2023-01-09T11:07:25;17.43;;;15.93;;
6679;SDS011;3376;42.664;23.346;2023-01-09T11:09:56;15.73;;;14.30;;
6679;SDS011;3376;42.664;23.346;2023-01-09T11:12:25;14.27;;;13.17;;
6679;SDS011;3376;42.664;23.346;2023-01-09T11:14:53;14.70;;;13.57;;
6679;SDS011;3376;42.664;23.346;2023-01-09T11:17:20;14.40;;;13.40;;
6679;SDS011;3376;42.664;23.346;2023-01-09T11:20:00;15.00;;;13.60;;
6679;SDS011;3376;42.664;23.346;2023-01-09T11:22:30;14.13;;;12.73;;
6679;SDS011;3376;42.664;23.346;2023-01-09T11:25:10;15.50;;;14.20;;
6679;SDS011;3376;42.664;23.346;2023-01-09T11:27:37;15.63;;;14.13;;
6679;SDS011;3376;42.664;23.346;2023-01-09T11:30:14;15.83;;;14.63;;
6679;SDS011;3376;42.664;23.346;2023-01-09T11:32:48;16.00;;;14.70;;
6679;SDS011;3376;42.664;23.346;2023-01-09T11:35:16;15.90;;;14.50;;
6679;SDS011;3376;42.664;23.346;2023-01-09T11:37:47;15.57;;;14.27;;
6679;SDS011;3376;42.664;23.346;2023-01-09T11:40:22;16.43;;;14.80;;
6679;SDS011;3376;42.664;23.346;2023-01-09T11:43:02;18.03;;;15.10;;
6679;SDS011;3376;42.664;23.346;2023-01-09T11:45:36;15.97;;;14.47;;
6679;SDS011;3376;42.664;23.346;2023-01-09T11:48:15;16.67;;;15.03;;
6679;SDS011;3376;42.664;23.346;2023-01-09T11:50:50;18.20;;;16.33;;
6679;SDS011;3376;42.664;23.346;2023-01-09T11:53:22;21.37;;;16.00;;
6679;SDS011;3376;42.664;23.346;2023-01-09T11:55:53;19.87;;;15.17;;
6679;SDS011;3376;42.664;23.346;2023-01-09T11:58:27;16.53;;;14.83;;
6679;SDS011;3376;42.664;23.346;2023-01-09T12:01:02;16.17;;;14.57;;
6679;SDS011;3376;42.664;23.346;2023-01-09T12:03:51;18.20;;;15.57;;
6679;SDS011;3376;42.664;23.346;2023-01-09T12:06:31;14.60;;;13.20;;
6679;SDS011;3376;42.664;23.346;2023-01-09T12:09:10;17.73;;;14.13;;
6679;SDS011;3376;42.664;23.346;2023-01-09T12:11:45;16.10;;;14.53;;
6679;SDS011;3376;42.664;23.346;2023-01-09T12:14:26;15.87;;;14.30;;
6679;SDS011;3376;42.664;23.346;2023-01-09T12:17:25;16.07;;;14.37;;
6679;SDS011;3376;42.664;23.346;2023-01-09T12:23:18;16.20;;;14.57;;
6679;SDS011;3376;42.664;23.346;2023-01-09T12:25:57;17.93;;;15.10;;
6679;SDS011;3376;42.664;23.346;2023-01-09T12:28:37;19.17;;;13.80;;
6679;SDS011;3376;42.664;23.346;2023-01-09T12:31:19;17.27;;;13.83;;
6679;SDS011;3376;42.664;23.346;2023-01-09T12:34:02;14.20;;;12.90;;
6679;SDS011;3376;42.664;23.346;2023-01-09T12:36:41;15.43;;;13.83;;
6679;SDS011;3376;42.664;23.346;2023-01-09T12:39:17;15.37;;;14.00;;
6679;SDS011;3376;42.664;23.346;2023-01-09T12:42:06;15.17;;;14.00;;
6679;SDS011;3376;42.664;23.346;2023-01-09T12:44:49;13.17;;;12.07;;
6679;SDS011;3376;42.664;23.346;2023-01-09T12:47:41;14.17;;;12.90;;
6679;SDS011;3376;42.664;23.346;2023-01-09T12:50:22;13.50;;;12.40;;
6679;SDS011;3376;42.664;23.346;2023-01-09T12:53:02;14.97;;;13.63;;
6679;SDS011;3376;42.664;23.346;2023-01-09T12:55:37;13.27;;;11.93;;
6679;SDS011;3376;42.664;23.346;2023-01-09T12:58:10;13.00;;;11.87;;
6679;SDS011;3376;42.664;23.346;2023-01-09T13:00:45;14.07;;;12.70;;
6679;SDS011;3376;42.664;23.346;2023-01-09T13:03:16;13.00;;;11.70;;
6679;SDS011;3376;42.664;23.346;2023-01-09T13:05:49;12.03;;;11.03;;
6679;SDS011;3376;42.664;23.346;2023-01-09T13:08:19;13.93;;;12.50;;
6679;SDS011;3376;42.664;23.346;2023-01-09T13:10:50;13.63;;;12.33;;
6679;SDS011;3376;42.664;23.346;2023-01-09T13:13:21;19.10;;;13.10;;
6679;SDS011;3376;42.664;23.346;2023-01-09T13:15:56;14.40;;;12.90;;
6679;SDS011;3376;42.664;23.346;2023-01-09T13:18:26;14.50;;;13.23;;
6679;SDS011;3376;42.664;23.346;2023-01-09T13:20:59;16.27;;;14.20;;
6679;SDS011;3376;42.664;23.346;2023-01-09T13:23:27;15.50;;;13.73;;
6679;SDS011;3376;42.664;23.346;2023-01-09T13:26:01;17.77;;;14.30;;
6679;SDS011;3376;42.664;23.346;2023-01-09T13:28:33;15.20;;;13.70;;
6679;SDS011;3376;42.664;23.346;2023-01-09T13:34:00;18.60;;;14.73;;
6679;SDS011;3376;42.664;23.346;2023-01-09T13:36:31;20.70;;;14.23;;
6679;SDS011;3376;42.664;23.346;2023-01-09T13:39:01;15.67;;;14.00;;
6679;SDS011;3376;42.664;23.346;2023-01-09T13:41:30;19.10;;;14.43;;
6679;SDS011;3376;42.664;23.346;2023-01-09T13:44:30;16.97;;;13.60;;
6679;SDS011;3376;42.664;23.346;2023-01-09T13:46:57;15.77;;;13.97;;
6679;SDS011;3376;42.664;23.346;2023-01-09T13:49:57;20.50;;;13.90;;
6679;SDS011;3376;42.664;23.346;2023-01-09T13:52:46;18.37;;;13.97;;
6679;SDS011;3376;42.664;23.346;2023-01-09T14:00:51;16.20;;;13.77;;
6679;SDS011;3376;42.664;23.346;2023-01-09T14:03:24;15.50;;;13.60;;
6679;SDS011;3376;42.664;23.346;2023-01-09T14:06:11;14.17;;;12.70;;
6679;SDS011;3376;42.664;23.346;2023-01-09T14:08:41;17.67;;;13.23;;
6679;SDS011;3376;42.664;23.346;2023-01-09T14:11:16;22.70;;;13.33;;
6679;SDS011;3376;42.664;23.346;2023-01-09T14:13:46;14.50;;;13.07;;
6679;SDS011;3376;42.664;23.346;2023-01-09T14:16:25;16.07;;;13.90;;
6679;SDS011;3376;42.664;23.346;2023-01-09T14:18:56;19.17;;;13.93;;
6679;SDS011;3376;42.664;23.346;2023-01-09T14:21:41;13.87;;;12.63;;
6679;SDS011;3376;42.664;23.346;2023-01-09T14:24:10;14.37;;;12.87;;
6679;SDS011;3376;42.664;23.346;2023-01-09T14:26:47;17.27;;;13.50;;
6679;SDS011;3376;42.664;23.346;2023-01-09T14:29:38;15.17;;;11.97;;
6679;SDS011;3376;42.664;23.346;2023-01-09T14:38:11;14.17;;;12.67;;
6679;SDS011;3376;42.664;23.346;2023-01-09T14:40:51;16.87;;;13.83;;
6679;SDS011;3376;42.664;23.346;2023-01-09T14:43:23;21.97;;;13.70;;
6679;SDS011;3376;42.664;23.346;2023-01-09T14:46:07;16.77;;;13.53;;
6679;SDS011;3376;42.664;23.346;2023-01-09T14:48:41;14.30;;;12.97;;
6679;SDS011;3376;42.664;23.346;2023-01-09T14:51:19;20.77;;;14.13;;
6679;SDS011;3376;42.664;23.346;2023-01-09T14:53:47;17.47;;;13.63;;
6679;SDS011;3376;42.664;23.346;2023-01-09T14:56:27;16.03;;;13.83;;
6679;SDS011;3376;42.664;23.346;2023-01-09T14:59:02;18.40;;;14.80;;
6679;SDS011;3376;42.664;23.346;2023-01-09T15:01:29;16.50;;;13.17;;
6679;SDS011;3376;42.664;23.346;2023-01-09T15:04:00;16.03;;;13.33;;
6679;SDS011;3376;42.664;23.346;2023-01-09T15:06:32;18.53;;;13.40;;
6679;SDS011;3376;42.664;23.346;2023-01-09T15:09:01;18.73;;;13.93;;
6679;SDS011;3376;42.664;23.346;2023-01-09T15:11:33;17.07;;;14.10;;
6679;SDS011;3376;42.664;23.346;2023-01-09T15:14:03;17.97;;;14.37;;
6679;SDS011;3376;42.664;23.346;2023-01-09T15:16:34;17.17;;;14.07;;
6679;SDS011;3376;42.664;23.346;2023-01-09T15:19:03;16.37;;;13.83;;
6679;SDS011;3376;42.664;23.346;2023-01-09T15:21:33;21.73;;;14.17;;
6679;SDS011;3376;42.664;23.346;2023-01-09T15:24:12;26.00;;;15.57;;
6679;SDS011;3376;42.664;23.346;2023-01-09T15:26:50;15.47;;;13.70;;
6679;SDS011;3376;42.664;23.346;2023-01-09T15:29:17;20.57;;;13.83;;
6679;SDS011;3376;42.664;23.346;2023-01-09T15:31:45;19.27;;;14.37;;
6679;SDS011;3376;42.664;23.346;2023-01-09T15:34:19;17.60;;;13.73;;
6679;SDS011;3376;42.664;23.346;2023-01-09T15:36:47;21.60;;;13.87;;